createdAt,value
2023-12-12T00:00:52.341Z,23.63
2023-12-12T00:03:19.510Z,23.62
2023-12-12T00:05:46.240Z,23.63
2023-12-12T00:08:13.054Z,23.64
2023-12-12T00:10:39.834Z,23.64
2023-12-12T00:13:07.593Z,23.64
2023-12-12T00:15:34.328Z,23.65
2023-12-12T00:18:01.027Z,23.66
2023-12-12T00:20:27.695Z,23.65
2023-12-12T00:22:55.113Z,23.65
2023-12-12T00:25:21.898Z,23.66
2023-12-12T00:27:48.590Z,23.67
2023-12-12T00:30:15.354Z,23.68
2023-12-12T00:32:42.144Z,23.67
2023-12-12T00:35:09.013Z,23.66
2023-12-12T00:37:36.196Z,23.67
2023-12-12T00:40:03.137Z,23.67
2023-12-12T00:42:29.877Z,23.70
2023-12-12T00:44:56.529Z,23.69
2023-12-12T00:47:25.896Z,23.71
2023-12-12T00:49:55.647Z,23.71
2023-12-12T00:52:22.560Z,23.70
2023-12-12T00:54:49.588Z,23.72
2023-12-12T00:57:16.250Z,23.71
2023-12-12T00:59:44.488Z,23.71
2023-12-12T01:02:11.663Z,23.72
2023-12-12T01:04:38.380Z,23.71
2023-12-12T01:07:07.235Z,23.72
2023-12-12T01:09:33.959Z,23.73
2023-12-12T01:12:00.637Z,23.73
2023-12-12T01:14:27.531Z,23.72
2023-12-12T01:16:54.151Z,23.71
2023-12-12T01:19:20.927Z,23.73
2023-12-12T01:21:47.692Z,23.72
2023-12-12T01:24:14.303Z,23.73
2023-12-12T01:26:44.062Z,23.73
2023-12-12T01:29:12.322Z,23.73
2023-12-12T01:31:39.150Z,23.72
2023-12-12T01:34:06.365Z,23.72
2023-12-12T01:36:35.615Z,23.72
2023-12-12T01:39:02.315Z,23.72
2023-12-12T01:41:31.680Z,23.73
2023-12-12T01:43:58.400Z,23.73
2023-12-12T01:46:25.287Z,23.73
2023-12-12T01:48:52.116Z,23.73
2023-12-12T01:51:19.197Z,23.74
2023-12-12T01:53:49.535Z,23.75
2023-12-12T01:56:16.249Z,23.74
2023-12-12T01:58:45.026Z,23.74
2023-12-12T02:01:11.897Z,23.75
2023-12-12T02:03:39.339Z,23.75
2023-12-12T02:06:06.482Z,23.76
2023-12-12T02:08:33.260Z,23.76
2023-12-12T02:11:00.374Z,23.75
2023-12-12T02:13:27.072Z,23.76
2023-12-12T02:15:53.935Z,23.74
2023-12-12T02:18:20.789Z,23.75
2023-12-12T02:20:47.949Z,23.76
2023-12-12T02:23:14.692Z,23.78
2023-12-12T02:25:43.587Z,23.76
2023-12-12T02:28:10.658Z,23.77
2023-12-12T02:30:37.472Z,23.78
2023-12-12T02:33:05.826Z,23.76
2023-12-12T02:35:32.603Z,23.77
2023-12-12T02:37:59.333Z,23.76
2023-12-12T02:40:26.080Z,23.79
2023-12-12T02:42:54.190Z,23.76
2023-12-12T02:45:20.919Z,23.79
2023-12-12T02:47:47.794Z,23.79
2023-12-12T02:50:14.549Z,23.79
2023-12-12T02:52:44.111Z,23.79
2023-12-12T02:55:10.899Z,23.79
2023-12-12T02:57:37.628Z,23.80
2023-12-12T03:00:12.259Z,23.80
2023-12-12T03:02:39.003Z,23.79
2023-12-12T03:05:06.605Z,23.81
2023-12-12T03:07:33.799Z,23.81
2023-12-12T03:10:02.128Z,23.82
2023-12-12T03:12:28.836Z,23.84
2023-12-12T03:14:55.868Z,23.81
2023-12-12T03:17:22.512Z,23.82
2023-12-12T03:19:49.444Z,23.81
2023-12-12T03:22:16.264Z,23.80
2023-12-12T03:24:42.965Z,23.81
2023-12-12T03:27:09.935Z,23.81
2023-12-12T03:29:36.999Z,23.81
2023-12-12T03:32:03.913Z,23.80
2023-12-12T03:34:31.006Z,23.79
2023-12-12T03:36:57.864Z,23.81
2023-12-12T03:39:24.605Z,23.81
2023-12-12T03:41:51.822Z,23.82
2023-12-12T03:44:21.026Z,23.81
2023-12-12T03:46:47.666Z,23.82
2023-12-12T03:49:14.630Z,23.82
2023-12-12T03:51:41.473Z,23.83
2023-12-12T03:54:10.252Z,23.83
2023-12-12T03:56:37.117Z,23.83
2023-12-12T03:59:06.132Z,23.82
2023-12-12T04:01:33.022Z,23.83
2023-12-12T04:03:59.945Z,23.84
2023-12-12T04:06:26.689Z,23.82
2023-12-12T04:08:53.627Z,23.73
2023-12-12T04:11:20.320Z,23.64
2023-12-12T04:13:47.016Z,23.53
2023-12-12T04:16:16.119Z,23.40
2023-12-12T04:18:42.846Z,23.28
2023-12-12T04:21:12.639Z,23.16
2023-12-12T04:23:43.981Z,23.04
2023-12-12T04:26:10.947Z,22.91
2023-12-12T04:28:38.041Z,22.81
2023-12-12T04:31:04.873Z,22.68
2023-12-12T04:33:31.593Z,22.57
2023-12-12T04:35:58.412Z,22.47
2023-12-12T04:38:25.237Z,22.37
2023-12-12T04:40:51.919Z,22.26
2023-12-12T04:43:18.612Z,22.17
2023-12-12T04:45:45.292Z,22.08
2023-12-12T04:48:12.010Z,21.98
2023-12-12T04:50:38.984Z,21.91
2023-12-12T04:53:07.768Z,21.83
2023-12-12T04:55:37.575Z,21.75
2023-12-12T04:58:04.989Z,21.68
2023-12-12T05:00:32.070Z,21.59
2023-12-12T05:02:58.764Z,21.54
2023-12-12T05:05:25.687Z,21.48
2023-12-12T05:07:52.630Z,21.41
2023-12-12T05:10:19.418Z,21.35
2023-12-12T05:12:46.073Z,21.29
2023-12-12T05:15:13.804Z,21.22
2023-12-12T05:17:43.525Z,21.17
2023-12-12T05:20:12.887Z,21.11
2023-12-12T05:22:40.262Z,21.04
2023-12-12T05:25:07.579Z,20.99
2023-12-12T05:27:34.372Z,20.93
2023-12-12T05:30:03.928Z,20.88
2023-12-12T05:32:30.807Z,20.83
2023-12-12T05:34:57.561Z,20.76
2023-12-12T05:37:24.214Z,20.70
2023-12-12T05:39:51.198Z,20.64
2023-12-12T05:42:17.882Z,20.60
2023-12-12T05:44:44.563Z,20.55
2023-12-12T05:47:11.179Z,20.50
2023-12-12T05:49:38.160Z,20.42
2023-12-12T05:52:05.563Z,20.37
2023-12-12T05:54:32.386Z,20.31
2023-12-12T05:56:59.141Z,20.26
2023-12-12T05:59:26.037Z,20.21
2023-12-12T06:01:52.882Z,20.19
2023-12-12T06:04:19.655Z,20.13
2023-12-12T06:06:46.437Z,20.12
2023-12-12T06:09:14.309Z,20.16
2023-12-12T06:11:43.201Z,20.22
2023-12-12T06:14:10.252Z,20.33
2023-12-12T06:16:39.208Z,20.48
2023-12-12T06:19:06.950Z,20.64
2023-12-12T06:21:34.450Z,20.86
2023-12-12T06:24:03.379Z,21.11
2023-12-12T06:26:31.081Z,21.34
2023-12-12T06:28:57.754Z,21.58
2023-12-12T06:31:24.905Z,21.85
2023-12-12T06:33:52.848Z,22.12
2023-12-12T06:36:19.589Z,22.40
2023-12-12T06:38:46.265Z,22.64
2023-12-12T06:41:12.952Z,22.79
2023-12-12T06:43:39.836Z,22.88
2023-12-12T06:46:06.798Z,22.96
2023-12-12T06:48:33.630Z,23.03
2023-12-12T06:51:02.488Z,23.09
2023-12-12T06:53:29.916Z,23.14
2023-12-12T06:55:56.637Z,23.23
2023-12-12T06:58:26.240Z,23.37
2023-12-12T07:00:53.277Z,23.49
2023-12-12T07:03:20.140Z,23.55
2023-12-12T07:05:47.065Z,23.58
2023-12-12T07:08:14.001Z,23.61
2023-12-12T07:10:41.502Z,23.67
2023-12-12T07:15:52.514Z,23.72
2023-12-12T07:18:19.394Z,23.73
2023-12-12T07:20:46.163Z,23.74
2023-12-12T07:23:15.280Z,23.81
2023-12-12T07:25:46.656Z,23.87
2023-12-12T07:28:13.366Z,23.90
2023-12-12T07:30:40.508Z,23.92
2023-12-12T07:33:09.986Z,23.96
2023-12-12T07:35:36.941Z,23.97
2023-12-12T07:38:06.369Z,24.02
2023-12-12T07:40:33.530Z,24.07
2023-12-12T07:43:00.300Z,24.06
2023-12-12T07:45:27.101Z,24.07
2023-12-12T07:47:54.278Z,24.09
2023-12-12T07:50:22.041Z,24.09
2023-12-12T07:52:50.128Z,24.10
2023-12-12T07:55:17.067Z,24.08
2023-12-12T07:57:43.889Z,24.11
2023-12-12T08:00:13.814Z,24.12
2023-12-12T08:02:41.673Z,24.16
2023-12-12T08:05:11.049Z,24.17
2023-12-12T08:07:37.895Z,24.20
2023-12-12T08:10:06.591Z,24.11
2023-12-12T08:12:33.312Z,24.02
2023-12-12T08:15:00.043Z,23.91
2023-12-12T08:17:27.995Z,23.77
2023-12-12T08:19:55.085Z,23.64
2023-12-12T08:22:22.504Z,23.49
2023-12-12T08:24:52.001Z,23.37
2023-12-12T08:27:21.506Z,23.25
2023-12-12T08:29:51.373Z,23.12
2023-12-12T08:32:18.104Z,23.04
2023-12-12T08:34:44.881Z,22.92
2023-12-12T08:37:11.795Z,22.84
2023-12-12T08:39:40.024Z,22.74
2023-12-12T08:42:07.120Z,22.64
2023-12-12T08:44:33.872Z,22.55
2023-12-12T08:47:00.509Z,22.45
2023-12-12T08:49:28.090Z,22.37
2023-12-12T08:51:54.905Z,22.29
2023-12-12T08:54:23.913Z,22.23
2023-12-12T08:56:54.534Z,22.13
2023-12-12T08:59:23.898Z,22.06
2023-12-12T09:01:50.689Z,21.98
2023-12-12T09:04:18.081Z,21.95
2023-12-12T09:06:47.751Z,21.87
2023-12-12T09:09:16.856Z,21.81
2023-12-12T09:11:46.783Z,21.75
2023-12-12T09:14:13.500Z,21.69
2023-12-12T09:16:40.204Z,21.64
2023-12-12T09:19:07.760Z,21.59
2023-12-12T09:21:34.605Z,21.54
2023-12-12T09:24:01.408Z,21.52
2023-12-12T09:26:50.244Z,21.48
2023-12-12T09:29:17.615Z,21.44
2023-12-12T09:31:44.551Z,21.41
2023-12-12T09:34:11.303Z,21.36
2023-12-12T09:36:38.028Z,21.31
2023-12-12T09:39:08.302Z,21.28
2023-12-12T09:41:37.739Z,21.24
2023-12-12T09:44:07.912Z,21.20
2023-12-12T09:46:37.744Z,21.16
2023-12-12T09:49:07.562Z,21.12
2023-12-12T09:51:34.555Z,21.11
2023-12-12T09:54:02.887Z,21.08
2023-12-12T09:56:29.554Z,21.04
2023-12-12T09:58:56.211Z,21.03
2023-12-12T10:01:23.455Z,21.00
2023-12-12T10:03:50.156Z,20.99
2023-12-12T10:06:17.094Z,20.99
2023-12-12T10:08:43.784Z,21.00
2023-12-12T10:11:11.202Z,21.04
2023-12-12T10:13:51.925Z,21.14
2023-12-12T10:16:19.187Z,21.27
2023-12-12T10:18:49.150Z,21.44
2023-12-12T10:21:19.364Z,21.61
2023-12-12T10:23:47.121Z,21.83
2023-12-12T10:26:15.075Z,22.09
2023-12-12T10:28:43.158Z,22.39
2023-12-12T10:31:11.151Z,22.63
2023-12-12T10:33:39.517Z,22.93
2023-12-12T10:36:10.226Z,23.26
2023-12-12T10:38:37.622Z,23.54
2023-12-12T10:41:30.882Z,23.70
2023-12-12T10:43:57.798Z,23.81
2023-12-12T10:46:24.544Z,23.88
2023-12-12T10:48:54.147Z,23.92
2023-12-12T10:51:21.236Z,23.91
2023-12-12T10:53:49.882Z,23.94
2023-12-12T10:56:16.617Z,23.99
2023-12-12T10:58:44.092Z,24.11
2023-12-12T11:01:11.873Z,24.16
2023-12-12T11:03:42.125Z,24.19
2023-12-12T11:06:11.939Z,24.31
2023-12-12T11:08:39.106Z,24.36
2023-12-12T11:11:14.805Z,24.38
2023-12-12T11:13:43.079Z,24.37
2023-12-12T11:16:09.933Z,24.42
2023-12-12T11:18:43.897Z,24.40
2023-12-12T11:21:43.234Z,24.48
2023-12-12T11:24:09.894Z,24.59
2023-12-12T11:26:37.068Z,24.66
2023-12-12T11:29:08.982Z,24.73
2023-12-12T11:31:36.149Z,24.81
2023-12-12T11:34:12.457Z,24.84
2023-12-12T11:36:51.794Z,24.86
2023-12-12T11:39:38.688Z,24.92
2023-12-12T11:42:07.415Z,24.91
2023-12-12T11:44:44.228Z,24.90
2023-12-12T11:49:41.505Z,24.94
2023-12-12T11:52:08.650Z,24.96
2023-12-12T11:54:35.531Z,24.95
2023-12-12T11:57:02.437Z,24.98
2023-12-12T11:59:29.945Z,24.95
2023-12-12T12:01:56.766Z,24.97
2023-12-12T12:04:23.537Z,24.98
2023-12-12T12:06:51.075Z,24.97
2023-12-12T12:09:18.113Z,24.88
2023-12-12T12:11:53.135Z,24.82
2023-12-12T12:14:25.925Z,24.71
2023-12-12T12:16:57.531Z,24.58
2023-12-12T12:19:27.280Z,24.47
2023-12-12T12:21:54.097Z,24.32
2023-12-12T12:24:23.317Z,24.21
2023-12-12T12:26:50.122Z,24.08
2023-12-12T12:29:16.764Z,23.92
2023-12-12T12:31:43.713Z,23.77
2023-12-12T12:34:18.513Z,23.66
2023-12-12T12:36:47.747Z,23.52
2023-12-12T12:39:17.738Z,23.39
2023-12-12T12:41:48.450Z,23.28
2023-12-12T12:44:15.271Z,23.16
2023-12-12T12:46:52.034Z,23.06
2023-12-12T12:49:19.153Z,22.95
2023-12-12T12:51:49.398Z,22.87
2023-12-12T12:54:18.822Z,22.78
2023-12-12T12:56:48.075Z,22.69
2023-12-12T12:59:19.276Z,22.59
2023-12-12T13:01:46.843Z,22.52
2023-12-12T13:04:13.927Z,22.44
2023-12-12T13:06:43.065Z,22.37
2023-12-12T13:09:11.217Z,22.31
2023-12-12T13:11:39.595Z,22.24
2023-12-12T13:14:07.125Z,22.18
2023-12-12T13:16:34.081Z,22.10
2023-12-12T13:19:01.045Z,22.05
2023-12-12T13:21:27.959Z,21.98
2023-12-12T13:23:55.355Z,21.92
2023-12-12T13:26:25.044Z,21.85
2023-12-12T13:28:53.413Z,21.80
2023-12-12T13:31:22.178Z,21.75
2023-12-12T13:33:49.562Z,21.70
2023-12-12T13:36:16.610Z,21.64
2023-12-12T13:38:43.469Z,21.57
2023-12-12T13:41:10.472Z,21.53
2023-12-12T13:43:37.352Z,21.46
2023-12-12T13:46:04.880Z,21.41
2023-12-12T13:48:31.737Z,21.37
2023-12-12T13:50:58.635Z,21.32
2023-12-12T13:53:25.824Z,21.29
2023-12-12T13:55:53.940Z,21.22
2023-12-12T13:58:23.485Z,21.18
2023-12-12T14:00:50.359Z,21.14
2023-12-12T14:03:18.840Z,21.11
2023-12-12T14:05:45.800Z,21.05
2023-12-12T14:08:12.949Z,21.02
2023-12-12T14:10:39.825Z,21.03
2023-12-12T14:13:06.479Z,21.09
2023-12-12T14:15:33.159Z,21.17
2023-12-12T14:18:00.658Z,21.29
2023-12-12T14:20:27.699Z,21.43
2023-12-12T14:23:01.578Z,21.59
2023-12-12T14:25:34.561Z,21.81
2023-12-12T14:28:01.316Z,22.07
2023-12-12T14:30:28.527Z,22.34
2023-12-12T14:32:57.043Z,22.62
2023-12-12T14:35:23.929Z,22.89
2023-12-12T14:37:50.634Z,23.17
2023-12-12T14:40:17.302Z,23.39
2023-12-12T14:42:44.106Z,23.56
2023-12-12T14:45:11.952Z,23.68
2023-12-12T14:47:39.875Z,23.76
2023-12-12T14:50:08.733Z,23.84
2023-12-12T14:52:35.927Z,23.87
2023-12-12T14:55:02.903Z,23.92
2023-12-12T14:57:29.614Z,23.97
2023-12-12T14:59:56.610Z,24.05
2023-12-12T15:02:23.548Z,24.20
2023-12-12T15:04:50.739Z,24.25
2023-12-12T15:07:17.463Z,24.26
2023-12-12T15:09:44.097Z,24.28
2023-12-12T15:12:10.790Z,24.30
2023-12-12T15:14:37.610Z,24.31
2023-12-12T15:17:04.458Z,24.29
2023-12-12T15:19:31.313Z,24.30
2023-12-12T15:21:57.986Z,24.34
2023-12-12T15:24:24.709Z,24.41
2023-12-12T15:26:51.431Z,24.47
2023-12-12T15:29:18.129Z,24.55
2023-12-12T15:31:47.772Z,24.62
2023-12-12T15:34:14.604Z,24.66
2023-12-12T15:36:41.387Z,24.69
2023-12-12T15:39:08.057Z,24.65
2023-12-12T15:41:37.245Z,24.68
2023-12-12T15:44:04.911Z,24.68
2023-12-12T15:46:31.856Z,24.68
2023-12-12T15:48:59.212Z,24.67
2023-12-12T15:51:28.283Z,24.69
2023-12-12T15:53:56.332Z,24.69
2023-12-12T15:56:25.660Z,24.70
2023-12-12T15:58:55.194Z,24.71
2023-12-12T16:01:22.288Z,24.71
2023-12-12T16:03:52.100Z,24.72
2023-12-12T16:06:19.681Z,24.69
2023-12-12T16:08:47.115Z,24.66
2023-12-12T16:11:13.807Z,24.62
2023-12-12T16:13:40.609Z,24.52
2023-12-12T16:16:07.857Z,24.39
2023-12-12T16:18:35.596Z,24.26
2023-12-12T16:21:02.256Z,24.14
2023-12-12T16:23:28.875Z,24.01
2023-12-12T16:25:55.554Z,23.89
2023-12-12T16:28:22.301Z,23.77
2023-12-12T16:30:49.054Z,23.68
2023-12-12T16:33:15.784Z,23.55
2023-12-12T16:35:42.825Z,23.45
2023-12-12T16:38:16.764Z,23.36
2023-12-12T16:40:43.556Z,23.25
2023-12-12T16:43:10.324Z,23.15
2023-12-12T16:45:37.967Z,23.07
2023-12-12T16:48:05.331Z,22.97
2023-12-12T16:50:32.807Z,22.89
2023-12-12T16:52:59.866Z,22.83
2023-12-12T16:55:26.684Z,22.74
2023-12-12T16:57:53.784Z,22.67
2023-12-12T17:00:20.642Z,22.60
2023-12-12T17:02:49.450Z,22.53
2023-12-12T17:05:16.245Z,22.46
2023-12-12T17:07:43.378Z,22.39
2023-12-12T17:10:10.748Z,22.33
2023-12-12T17:12:37.984Z,22.25
2023-12-12T17:15:07.853Z,22.20
2023-12-12T17:17:37.248Z,22.12
2023-12-12T17:20:04.547Z,22.06
2023-12-12T17:22:31.454Z,22.01
2023-12-12T17:24:58.362Z,21.93
2023-12-12T17:27:27.776Z,21.87
2023-12-12T17:29:57.318Z,21.82
2023-12-12T17:32:24.085Z,21.76
2023-12-12T17:34:51.178Z,21.70
2023-12-12T17:37:17.869Z,21.64
2023-12-12T17:39:44.590Z,21.58
2023-12-12T17:42:11.430Z,21.52
2023-12-12T17:44:38.161Z,21.47
2023-12-12T17:47:05.180Z,21.43
2023-12-12T17:49:32.006Z,21.38
2023-12-12T17:52:01.222Z,21.32
2023-12-12T17:54:27.907Z,21.27
2023-12-12T17:56:54.619Z,21.22
2023-12-12T17:59:21.406Z,21.18
2023-12-12T18:01:48.217Z,21.13
2023-12-12T18:04:15.438Z,21.09
2023-12-12T18:06:42.368Z,21.03
2023-12-12T18:09:09.146Z,21.00
2023-12-12T18:11:36.046Z,21.02
2023-12-12T18:14:04.081Z,21.06
2023-12-12T18:16:30.909Z,21.16
2023-12-12T18:18:57.794Z,21.27
2023-12-12T18:21:24.578Z,21.41
2023-12-12T18:23:51.250Z,21.58
2023-12-12T18:26:18.101Z,21.78
2023-12-12T18:28:48.470Z,22.01
2023-12-12T18:31:16.033Z,22.27
2023-12-12T18:33:43.483Z,22.55
2023-12-12T18:36:10.601Z,22.82
2023-12-12T18:38:37.578Z,23.08
2023-12-12T18:41:07.229Z,23.30
2023-12-12T18:43:34.209Z,23.46
2023-12-12T18:46:00.855Z,23.58
2023-12-12T18:48:27.705Z,23.68
2023-12-12T18:50:54.392Z,23.76
2023-12-12T18:53:21.092Z,23.81
2023-12-12T18:55:47.784Z,23.87
2023-12-12T18:58:14.757Z,23.94
2023-12-12T19:00:42.550Z,24.06
2023-12-12T19:03:09.242Z,24.14
2023-12-12T19:05:36.233Z,24.19
2023-12-12T19:08:03.339Z,24.21
2023-12-12T19:10:31.376Z,24.19
2023-12-12T19:12:59.655Z,24.12
2023-12-12T19:15:26.415Z,24.04
2023-12-12T19:17:54.157Z,23.93
2023-12-12T19:20:21.953Z,23.83
2023-12-12T19:22:48.935Z,23.71
2023-12-12T19:25:15.763Z,23.61
2023-12-12T19:27:42.507Z,23.52
2023-12-12T19:30:10.602Z,23.43
2023-12-12T19:32:39.028Z,23.38
2023-12-12T19:35:07.943Z,23.32
2023-12-12T19:37:35.498Z,23.28
2023-12-12T19:40:06.688Z,23.28
2023-12-12T19:42:34.780Z,23.27
2023-12-12T19:45:04.955Z,23.30
2023-12-12T19:47:31.981Z,23.32
2023-12-12T19:50:02.309Z,23.34
2023-12-12T19:52:32.476Z,23.36
2023-12-12T19:54:59.419Z,23.38
2023-12-12T19:57:26.081Z,23.41
2023-12-12T19:59:52.721Z,23.43
2023-12-12T20:02:19.444Z,23.44
2023-12-12T20:04:46.191Z,23.44
2023-12-12T20:07:14.710Z,23.45
2023-12-12T20:09:42.884Z,23.44
2023-12-12T20:12:10.452Z,23.41
2023-12-12T20:14:38.222Z,23.39
2023-12-12T20:17:08.087Z,23.38
2023-12-12T20:19:35.146Z,23.37
2023-12-12T20:22:02.003Z,23.34
2023-12-12T20:24:29.439Z,23.33
2023-12-12T20:26:56.219Z,23.34
2023-12-12T20:29:22.989Z,23.32
2023-12-12T20:31:49.888Z,23.31
2023-12-12T20:34:16.770Z,23.29
2023-12-12T20:36:43.440Z,23.28
2023-12-12T20:39:12.049Z,23.28
2023-12-12T20:41:38.771Z,23.28
2023-12-12T20:44:06.395Z,23.27
2023-12-12T20:46:34.824Z,23.27
2023-12-12T20:49:01.526Z,23.27
2023-12-12T20:51:31.079Z,23.26
2023-12-12T20:53:57.936Z,23.27
2023-12-12T20:56:24.696Z,23.27
2023-12-12T20:58:51.385Z,23.27
2023-12-12T21:01:18.167Z,23.26
2023-12-12T21:03:44.917Z,23.26
2023-12-12T21:06:11.650Z,23.25
2023-12-12T21:08:38.343Z,23.25
2023-12-12T21:11:11.536Z,23.27
2023-12-12T21:13:38.186Z,23.25
2023-12-12T21:16:17.843Z,23.26
2023-12-12T21:18:44.750Z,23.25
2023-12-12T21:21:11.415Z,23.24
2023-12-12T21:23:38.132Z,23.24
2023-12-12T21:26:05.033Z,23.24
2023-12-12T21:28:31.990Z,23.24
2023-12-12T21:30:59.007Z,23.24
2023-12-12T21:33:25.841Z,23.24
2023-12-12T21:35:52.697Z,23.24
2023-12-12T21:38:19.674Z,23.25
2023-12-12T21:40:46.827Z,23.24
2023-12-12T21:43:13.610Z,23.24
2023-12-12T21:45:40.303Z,23.23
2023-12-12T21:48:07.226Z,23.22
2023-12-12T21:50:34.256Z,23.23
2023-12-12T21:53:00.971Z,23.23
2023-12-12T21:55:27.666Z,23.23
2023-12-12T21:57:54.555Z,23.23
2023-12-12T22:00:26.017Z,23.24
2023-12-12T22:02:52.800Z,23.24
2023-12-12T22:05:19.629Z,23.23
2023-12-12T22:07:46.412Z,23.24
2023-12-12T22:10:13.241Z,23.23
2023-12-12T22:12:41.020Z,23.23
2023-12-12T22:15:08.736Z,23.23
2023-12-12T22:17:35.847Z,23.23
2023-12-12T22:20:06.995Z,23.24
2023-12-12T22:22:34.228Z,23.23
2023-12-12T22:25:01.017Z,23.24
2023-12-12T22:27:27.690Z,23.25
2023-12-12T22:29:54.563Z,23.24
2023-12-12T22:32:21.210Z,23.24
2023-12-12T22:34:48.157Z,23.23
2023-12-12T22:37:14.933Z,23.24
2023-12-12T22:39:41.717Z,23.23
2023-12-12T22:42:08.423Z,23.24
2023-12-12T22:44:35.442Z,23.23
2023-12-12T22:47:02.418Z,23.23
2023-12-12T22:49:29.283Z,23.22
2023-12-12T22:51:58.683Z,23.24
2023-12-12T22:54:25.496Z,23.24
2023-12-12T22:56:53.772Z,23.25
2023-12-12T22:59:20.503Z,23.25
2023-12-12T23:01:47.226Z,23.24
2023-12-12T23:04:14.055Z,23.25
2023-12-12T23:06:40.911Z,23.25
2023-12-12T23:09:12.332Z,23.26
2023-12-12T23:11:39.030Z,23.24
2023-12-12T23:14:08.874Z,23.24
2023-12-12T23:16:38.052Z,23.24
2023-12-12T23:19:04.790Z,23.24
2023-12-12T23:21:32.376Z,23.24
2023-12-12T23:23:59.216Z,23.24
2023-12-12T23:26:26.813Z,23.25
2023-12-12T23:28:53.697Z,23.24
2023-12-12T23:31:20.520Z,23.25
2023-12-12T23:33:47.420Z,23.25
2023-12-12T23:36:14.237Z,23.25
2023-12-12T23:38:40.931Z,23.25
2023-12-12T23:41:08.057Z,23.25
2023-12-12T23:43:35.881Z,23.26
2023-12-12T23:46:02.591Z,23.25
2023-12-12T23:48:30.357Z,23.26
2023-12-12T23:50:57.247Z,23.25
2023-12-12T23:53:26.604Z,23.28
2023-12-12T23:55:55.542Z,23.28
2023-12-12T23:58:25.469Z,23.29
